sensor_id;sensor_type;location;lat;lon;timestamp;temperature;humidity
38090;DHT22;23904;52.322;10.232;2023-07-30T00:01:54;18.30;99.90
38090;DHT22;23904;52.322;10.232;2023-07-30T00:04:19;18.40;99.90
38090;DHT22;23904;52.322;10.232;2023-07-30T00:06:46;18.40;99.90
38090;DHT22;23904;52.322;10.232;2023-07-30T00:09:11;18.30;99.90
38090;DHT22;23904;52.322;10.232;2023-07-30T00:11:37;18.20;99.90
38090;DHT22;23904;52.322;10.232;2023-07-30T00:14:03;18.20;99.90
38090;DHT22;23904;52.322;10.232;2023-07-30T00:16:29;18.10;99.90
38090;DHT22;23904;52.322;10.232;2023-07-30T00:18:54;18.00;99.90
38090;DHT22;23904;52.322;10.232;2023-07-30T00:21:20;18.10;99.90
38090;DHT22;23904;52.322;10.232;2023-07-30T00:23:45;18.00;99.90
38090;DHT22;23904;52.322;10.232;2023-07-30T00:26:11;18.00;99.90
38090;DHT22;23904;52.322;10.232;2023-07-30T00:28:37;18.10;99.90
38090;DHT22;23904;52.322;10.232;2023-07-30T00:31:02;18.10;99.90
38090;DHT22;23904;52.322;10.232;2023-07-30T00:33:28;18.20;99.90
38090;DHT22;23904;52.322;10.232;2023-07-30T00:35:53;18.20;99.90
38090;DHT22;23904;52.322;10.232;2023-07-30T00:38:19;18.20;99.90
38090;DHT22;23904;52.322;10.232;2023-07-30T00:40:45;18.20;99.90
38090;DHT22;23904;52.322;10.232;2023-07-30T00:43:11;18.20;99.90
38090;DHT22;23904;52.322;10.232;2023-07-30T00:45:39;18.20;99.90
38090;DHT22;23904;52.322;10.232;2023-07-30T00:48:06;18.20;99.90
38090;DHT22;23904;52.322;10.232;2023-07-30T00:50:32;18.20;99.90
38090;DHT22;23904;52.322;10.232;2023-07-30T00:52:58;18.20;99.90
38090;DHT22;23904;52.322;10.232;2023-07-30T00:55:24;18.20;99.90
38090;DHT22;23904;52.322;10.232;2023-07-30T00:57:50;18.10;99.90
38090;DHT22;23904;52.322;10.232;2023-07-30T01:00:17;18.00;99.90
38090;DHT22;23904;52.322;10.232;2023-07-30T01:02:43;18.00;99.90
38090;DHT22;23904;52.322;10.232;2023-07-30T01:05:09;18.00;99.90
38090;DHT22;23904;52.322;10.232;2023-07-30T01:07:35;17.90;99.90
38090;DHT22;23904;52.322;10.232;2023-07-30T01:10:00;17.90;99.90
38090;DHT22;23904;52.322;10.232;2023-07-30T01:12:29;17.90;99.90
38090;DHT22;23904;52.322;10.232;2023-07-30T01:14:57;17.90;99.90
38090;DHT22;23904;52.322;10.232;2023-07-30T01:17:23;17.90;99.90
38090;DHT22;23904;52.322;10.232;2023-07-30T01:19:49;17.80;99.90
38090;DHT22;23904;52.322;10.232;2023-07-30T01:22:16;17.80;99.90
38090;DHT22;23904;52.322;10.232;2023-07-30T01:24:41;17.80;99.90
38090;DHT22;23904;52.322;10.232;2023-07-30T01:27:08;17.80;99.90
38090;DHT22;23904;52.322;10.232;2023-07-30T01:29:57;17.90;99.90
38090;DHT22;23904;52.322;10.232;2023-07-30T01:32:28;17.90;99.90
38090;DHT22;23904;52.322;10.232;2023-07-30T01:34:56;17.90;99.90
38090;DHT22;23904;52.322;10.232;2023-07-30T01:37:23;18.00;99.90
38090;DHT22;23904;52.322;10.232;2023-07-30T01:39:49;18.00;99.90
38090;DHT22;23904;52.322;10.232;2023-07-30T01:42:16;18.00;99.90
38090;DHT22;23904;52.322;10.232;2023-07-30T01:44:41;18.00;99.90
38090;DHT22;23904;52.322;10.232;2023-07-30T01:47:07;18.00;99.90
38090;DHT22;23904;52.322;10.232;2023-07-30T01:49:33;18.00;99.90
38090;DHT22;23904;52.322;10.232;2023-07-30T01:51:58;18.00;99.90
38090;DHT22;23904;52.322;10.232;2023-07-30T01:54:24;18.00;99.90
38090;DHT22;23904;52.322;10.232;2023-07-30T01:56:50;18.00;99.90
38090;DHT22;23904;52.322;10.232;2023-07-30T01:59:15;18.10;99.90
38090;DHT22;23904;52.322;10.232;2023-07-30T02:01:44;18.10;99.90
38090;DHT22;23904;52.322;10.232;2023-07-30T02:04:10;18.20;99.90
38090;DHT22;23904;52.322;10.232;2023-07-30T02:06:35;18.20;99.90
38090;DHT22;23904;52.322;10.232;2023-07-30T02:09:01;18.20;99.90
38090;DHT22;23904;52.322;10.232;2023-07-30T02:11:28;18.20;99.90
38090;DHT22;23904;52.322;10.232;2023-07-30T02:13:54;18.20;99.90
38090;DHT22;23904;52.322;10.232;2023-07-30T02:16:20;18.20;99.90
38090;DHT22;23904;52.322;10.232;2023-07-30T02:18:45;18.30;99.90
38090;DHT22;23904;52.322;10.232;2023-07-30T02:21:12;18.20;99.90
38090;DHT22;23904;52.322;10.232;2023-07-30T02:23:37;18.20;99.90
38090;DHT22;23904;52.322;10.232;2023-07-30T02:26:03;18.20;99.90
38090;DHT22;23904;52.322;10.232;2023-07-30T02:28:28;18.20;99.90
38090;DHT22;23904;52.322;10.232;2023-07-30T02:30:54;18.30;99.90
38090;DHT22;23904;52.322;10.232;2023-07-30T02:33:19;18.20;99.90
38090;DHT22;23904;52.322;10.232;2023-07-30T02:35:45;18.20;99.90
38090;DHT22;23904;52.322;10.232;2023-07-30T02:38:11;18.20;99.90
38090;DHT22;23904;52.322;10.232;2023-07-30T02:40:36;18.10;99.90
38090;DHT22;23904;52.322;10.232;2023-07-30T02:43:02;18.00;99.90
38090;DHT22;23904;52.322;10.232;2023-07-30T02:45:27;18.00;99.90
38090;DHT22;23904;52.322;10.232;2023-07-30T02:47:53;17.90;99.90
38090;DHT22;23904;52.322;10.232;2023-07-30T02:50:19;17.80;99.90
38090;DHT22;23904;52.322;10.232;2023-07-30T02:52:44;17.70;99.90
38090;DHT22;23904;52.322;10.232;2023-07-30T02:55:10;17.70;99.90
38090;DHT22;23904;52.322;10.232;2023-07-30T02:57:35;17.60;99.90
38090;DHT22;23904;52.322;10.232;2023-07-30T03:00:01;17.50;99.90
38090;DHT22;23904;52.322;10.232;2023-07-30T03:02:29;17.50;99.90
38090;DHT22;23904;52.322;10.232;2023-07-30T03:04:54;17.50;99.90
38090;DHT22;23904;52.322;10.232;2023-07-30T03:07:20;17.50;99.90
38090;DHT22;23904;52.322;10.232;2023-07-30T03:09:46;17.40;99.90
38090;DHT22;23904;52.322;10.232;2023-07-30T03:12:12;17.40;99.90
38090;DHT22;23904;52.322;10.232;2023-07-30T03:14:38;17.30;99.90
38090;DHT22;23904;52.322;10.232;2023-07-30T03:17:03;17.20;99.90
38090;DHT22;23904;52.322;10.232;2023-07-30T03:19:30;17.20;99.90
38090;DHT22;23904;52.322;10.232;2023-07-30T03:21:56;17.20;99.90
38090;DHT22;23904;52.322;10.232;2023-07-30T03:24:22;17.10;99.90
38090;DHT22;23904;52.322;10.232;2023-07-30T03:26:47;17.10;99.90
38090;DHT22;23904;52.322;10.232;2023-07-30T03:29:14;17.00;99.90
38090;DHT22;23904;52.322;10.232;2023-07-30T03:31:40;17.00;99.90
38090;DHT22;23904;52.322;10.232;2023-07-30T03:34:05;17.00;99.90
38090;DHT22;23904;52.322;10.232;2023-07-30T03:36:31;17.00;99.90
38090;DHT22;23904;52.322;10.232;2023-07-30T03:38:57;17.00;99.90
38090;DHT22;23904;52.322;10.232;2023-07-30T03:41:22;17.00;99.90
38090;DHT22;23904;52.322;10.232;2023-07-30T03:43:48;16.90;99.90
38090;DHT22;23904;52.322;10.232;2023-07-30T03:46:14;17.00;99.90
38090;DHT22;23904;52.322;10.232;2023-07-30T03:48:39;16.90;99.90
38090;DHT22;23904;52.322;10.232;2023-07-30T03:51:05;16.90;99.90
38090;DHT22;23904;52.322;10.232;2023-07-30T03:53:32;16.90;99.90
38090;DHT22;23904;52.322;10.232;2023-07-30T03:55:58;16.90;99.90
38090;DHT22;23904;52.322;10.232;2023-07-30T03:58:23;16.80;99.90
38090;DHT22;23904;52.322;10.232;2023-07-30T04:00:49;16.90;99.90
38090;DHT22;23904;52.322;10.232;2023-07-30T04:03:14;16.80;99.90
38090;DHT22;23904;52.322;10.232;2023-07-30T04:05:40;16.90;99.90
38090;DHT22;23904;52.322;10.232;2023-07-30T04:08:05;16.90;99.90
38090;DHT22;23904;52.322;10.232;2023-07-30T04:10:31;16.90;99.90
38090;DHT22;23904;52.322;10.232;2023-07-30T04:12:57;16.90;99.90
38090;DHT22;23904;52.322;10.232;2023-07-30T04:15:22;16.90;99.90
38090;DHT22;23904;52.322;10.232;2023-07-30T04:17:48;16.80;99.90
38090;DHT22;23904;52.322;10.232;2023-07-30T04:20:13;16.80;99.90
38090;DHT22;23904;52.322;10.232;2023-07-30T04:22:39;16.80;99.90
38090;DHT22;23904;52.322;10.232;2023-07-30T04:25:07;16.80;99.90
38090;DHT22;23904;52.322;10.232;2023-07-30T04:27:33;16.80;99.90
38090;DHT22;23904;52.322;10.232;2023-07-30T04:29:59;16.80;99.90
38090;DHT22;23904;52.322;10.232;2023-07-30T04:32:24;16.80;99.90
38090;DHT22;23904;52.322;10.232;2023-07-30T04:34:50;16.80;99.90
38090;DHT22;23904;52.322;10.232;2023-07-30T04:37:15;16.80;99.90
38090;DHT22;23904;52.322;10.232;2023-07-30T04:39:41;16.80;99.90
38090;DHT22;23904;52.322;10.232;2023-07-30T04:42:06;16.80;99.90
38090;DHT22;23904;52.322;10.232;2023-07-30T04:44:32;16.80;99.90
38090;DHT22;23904;52.322;10.232;2023-07-30T04:46:58;16.80;99.90
38090;DHT22;23904;52.322;10.232;2023-07-30T04:49:23;16.90;99.90
38090;DHT22;23904;52.322;10.232;2023-07-30T04:51:49;16.90;99.90
38090;DHT22;23904;52.322;10.232;2023-07-30T04:54:15;16.90;99.90
38090;DHT22;23904;52.322;10.232;2023-07-30T04:56:41;16.80;99.90
38090;DHT22;23904;52.322;10.232;2023-07-30T04:59:06;16.90;99.90
38090;DHT22;23904;52.322;10.232;2023-07-30T05:01:32;16.90;99.90
38090;DHT22;23904;52.322;10.232;2023-07-30T05:03:58;16.90;99.90
38090;DHT22;23904;52.322;10.232;2023-07-30T05:06:24;17.00;99.90
38090;DHT22;23904;52.322;10.232;2023-07-30T05:08:49;17.00;99.90
38090;DHT22;23904;52.322;10.232;2023-07-30T05:11:15;17.00;99.90
38090;DHT22;23904;52.322;10.232;2023-07-30T05:13:40;17.10;99.90
38090;DHT22;23904;52.322;10.232;2023-07-30T05:16:06;17.10;99.90
38090;DHT22;23904;52.322;10.232;2023-07-30T05:18:31;17.20;99.90
38090;DHT22;23904;52.322;10.232;2023-07-30T05:20:57;17.30;99.90
38090;DHT22;23904;52.322;10.232;2023-07-30T05:23:23;17.30;99.90
38090;DHT22;23904;52.322;10.232;2023-07-30T05:25:49;17.40;99.90
38090;DHT22;23904;52.322;10.232;2023-07-30T05:28:14;17.40;99.90
38090;DHT22;23904;52.322;10.232;2023-07-30T05:30:40;17.50;99.90
38090;DHT22;23904;52.322;10.232;2023-07-30T05:33:05;17.60;99.90
38090;DHT22;23904;52.322;10.232;2023-07-30T05:35:31;17.60;99.90
38090;DHT22;23904;52.322;10.232;2023-07-30T05:37:56;17.70;99.90
38090;DHT22;23904;52.322;10.232;2023-07-30T05:40:22;17.70;99.90
38090;DHT22;23904;52.322;10.232;2023-07-30T05:42:48;17.70;99.90
38090;DHT22;23904;52.322;10.232;2023-07-30T05:45:14;17.60;99.90
38090;DHT22;23904;52.322;10.232;2023-07-30T05:47:39;17.60;99.90
38090;DHT22;23904;52.322;10.232;2023-07-30T05:50:06;17.60;99.90
38090;DHT22;23904;52.322;10.232;2023-07-30T05:52:32;17.60;99.90
38090;DHT22;23904;52.322;10.232;2023-07-30T05:54:58;17.60;99.90
38090;DHT22;23904;52.322;10.232;2023-07-30T05:57:24;17.70;99.90
38090;DHT22;23904;52.322;10.232;2023-07-30T05:59:50;17.70;99.90
38090;DHT22;23904;52.322;10.232;2023-07-30T06:02:15;17.80;99.90
38090;DHT22;23904;52.322;10.232;2023-07-30T06:04:41;17.80;99.90
38090;DHT22;23904;52.322;10.232;2023-07-30T06:07:07;17.90;99.90
38090;DHT22;23904;52.322;10.232;2023-07-30T06:09:32;17.90;99.90
38090;DHT22;23904;52.322;10.232;2023-07-30T06:11:58;18.00;99.90
38090;DHT22;23904;52.322;10.232;2023-07-30T06:14:25;18.00;99.90
38090;DHT22;23904;52.322;10.232;2023-07-30T06:16:51;18.00;99.90
38090;DHT22;23904;52.322;10.232;2023-07-30T06:19:18;18.10;99.90
38090;DHT22;23904;52.322;10.232;2023-07-30T06:21:43;18.20;99.90
38090;DHT22;23904;52.322;10.232;2023-07-30T06:24:09;18.20;99.90
38090;DHT22;23904;52.322;10.232;2023-07-30T06:26:36;18.20;99.90
38090;DHT22;23904;52.322;10.232;2023-07-30T06:29:01;18.30;99.90
38090;DHT22;23904;52.322;10.232;2023-07-30T06:31:27;18.30;99.90
38090;DHT22;23904;52.322;10.232;2023-07-30T06:33:53;18.30;99.90
38090;DHT22;23904;52.322;10.232;2023-07-30T06:36:18;18.40;99.90
38090;DHT22;23904;52.322;10.232;2023-07-30T06:38:44;18.50;99.90
38090;DHT22;23904;52.322;10.232;2023-07-30T06:41:10;18.60;99.90
38090;DHT22;23904;52.322;10.232;2023-07-30T06:43:35;18.60;99.90
38090;DHT22;23904;52.322;10.232;2023-07-30T06:46:01;18.60;99.90
38090;DHT22;23904;52.322;10.232;2023-07-30T06:48:27;18.70;99.90
38090;DHT22;23904;52.322;10.232;2023-07-30T06:50:52;18.60;99.90
38090;DHT22;23904;52.322;10.232;2023-07-30T06:53:18;18.60;99.90
38090;DHT22;23904;52.322;10.232;2023-07-30T06:55:43;18.60;99.90
38090;DHT22;23904;52.322;10.232;2023-07-30T06:58:10;18.70;99.90
38090;DHT22;23904;52.322;10.232;2023-07-30T07:00:36;18.70;99.90
38090;DHT22;23904;52.322;10.232;2023-07-30T07:03:02;18.70;99.90
38090;DHT22;23904;52.322;10.232;2023-07-30T07:05:28;18.80;99.90
38090;DHT22;23904;52.322;10.232;2023-07-30T07:07:54;18.80;99.90
38090;DHT22;23904;52.322;10.232;2023-07-30T07:10:20;18.90;99.90
38090;DHT22;23904;52.322;10.232;2023-07-30T07:12:46;18.90;99.90
38090;DHT22;23904;52.322;10.232;2023-07-30T07:15:12;19.00;99.90
38090;DHT22;23904;52.322;10.232;2023-07-30T07:17:38;19.10;99.90
38090;DHT22;23904;52.322;10.232;2023-07-30T07:20:04;19.20;99.90
38090;DHT22;23904;52.322;10.232;2023-07-30T07:22:32;19.20;99.90
38090;DHT22;23904;52.322;10.232;2023-07-30T07:24:57;19.30;99.90
38090;DHT22;23904;52.322;10.232;2023-07-30T07:27:23;19.30;99.90
38090;DHT22;23904;52.322;10.232;2023-07-30T07:29:50;19.30;99.90
38090;DHT22;23904;52.322;10.232;2023-07-30T07:32:16;19.40;99.90
38090;DHT22;23904;52.322;10.232;2023-07-30T07:34:48;19.60;99.90
38090;DHT22;23904;52.322;10.232;2023-07-30T07:37:15;19.70;99.90
38090;DHT22;23904;52.322;10.232;2023-07-30T07:39:42;19.80;99.90
38090;DHT22;23904;52.322;10.232;2023-07-30T07:42:09;19.80;99.90
38090;DHT22;23904;52.322;10.232;2023-07-30T07:44:35;19.90;99.90
38090;DHT22;23904;52.322;10.232;2023-07-30T07:47:01;20.00;99.90
38090;DHT22;23904;52.322;10.232;2023-07-30T07:49:26;20.10;99.90
38090;DHT22;23904;52.322;10.232;2023-07-30T07:51:52;20.20;99.90
38090;DHT22;23904;52.322;10.232;2023-07-30T07:54:17;20.30;99.90
38090;DHT22;23904;52.322;10.232;2023-07-30T07:56:43;20.40;99.90
38090;DHT22;23904;52.322;10.232;2023-07-30T07:59:08;20.30;99.90
38090;DHT22;23904;52.322;10.232;2023-07-30T08:01:34;20.30;99.90
38090;DHT22;23904;52.322;10.232;2023-07-30T08:04:00;20.40;99.90
38090;DHT22;23904;52.322;10.232;2023-07-30T08:06:25;20.30;99.90
38090;DHT22;23904;52.322;10.232;2023-07-30T08:08:51;20.40;99.90
38090;DHT22;23904;52.322;10.232;2023-07-30T08:11:16;20.60;99.90
38090;DHT22;23904;52.322;10.232;2023-07-30T08:13:42;20.70;99.90
38090;DHT22;23904;52.322;10.232;2023-07-30T08:16:08;20.90;99.90
38090;DHT22;23904;52.322;10.232;2023-07-30T08:18:34;21.00;99.90
38090;DHT22;23904;52.322;10.232;2023-07-30T08:21:02;21.00;99.90
38090;DHT22;23904;52.322;10.232;2023-07-30T08:23:28;21.10;99.90
38090;DHT22;23904;52.322;10.232;2023-07-30T08:25:56;21.20;99.90
38090;DHT22;23904;52.322;10.232;2023-07-30T08:28:22;21.30;99.90
38090;DHT22;23904;52.322;10.232;2023-07-30T08:30:47;21.30;99.90
38090;DHT22;23904;52.322;10.232;2023-07-30T08:33:13;21.50;99.90
38090;DHT22;23904;52.322;10.232;2023-07-30T08:35:39;21.70;99.90
38090;DHT22;23904;52.322;10.232;2023-07-30T08:38:04;22.00;99.90
38090;DHT22;23904;52.322;10.232;2023-07-30T08:40:31;22.30;99.90
38090;DHT22;23904;52.322;10.232;2023-07-30T08:42:57;22.70;99.90
38090;DHT22;23904;52.322;10.232;2023-07-30T08:45:23;23.30;99.90
38090;DHT22;23904;52.322;10.232;2023-07-30T08:47:49;23.90;99.20
38090;DHT22;23904;52.322;10.232;2023-07-30T08:50:15;24.30;98.20
38090;DHT22;23904;52.322;10.232;2023-07-30T08:52:41;24.70;98.20
38090;DHT22;23904;52.322;10.232;2023-07-30T08:55:07;25.00;97.80
38090;DHT22;23904;52.322;10.232;2023-07-30T08:57:33;25.80;96.10
38090;DHT22;23904;52.322;10.232;2023-07-30T09:00:06;26.20;94.60
38090;DHT22;23904;52.322;10.232;2023-07-30T09:02:40;26.30;94.70
38090;DHT22;23904;52.322;10.232;2023-07-30T09:05:09;27.10;92.90
38090;DHT22;23904;52.322;10.232;2023-07-30T09:07:34;27.20;92.40
38090;DHT22;23904;52.322;10.232;2023-07-30T09:10:00;27.60;92.00
38090;DHT22;23904;52.322;10.232;2023-07-30T09:12:30;28.10;91.20
38090;DHT22;23904;52.322;10.232;2023-07-30T09:14:56;28.60;89.30
38090;DHT22;23904;52.322;10.232;2023-07-30T09:17:22;28.90;85.80
38090;DHT22;23904;52.322;10.232;2023-07-30T09:19:48;29.20;85.90
38090;DHT22;23904;52.322;10.232;2023-07-30T09:22:26;29.20;84.70
38090;DHT22;23904;52.322;10.232;2023-07-30T09:24:54;29.90;83.60
38090;DHT22;23904;52.322;10.232;2023-07-30T09:27:21;29.70;81.20
38090;DHT22;23904;52.322;10.232;2023-07-30T09:29:58;29.80;78.60
38090;DHT22;23904;52.322;10.232;2023-07-30T09:32:36;29.90;80.40
38090;DHT22;23904;52.322;10.232;2023-07-30T09:37:41;29.30;81.30
38090;DHT22;23904;52.322;10.232;2023-07-30T09:40:11;29.30;82.80
38090;DHT22;23904;52.322;10.232;2023-07-30T09:42:41;29.00;83.00
38090;DHT22;23904;52.322;10.232;2023-07-30T09:45:16;28.50;83.60
38090;DHT22;23904;52.322;10.232;2023-07-30T09:47:50;29.00;82.40
38090;DHT22;23904;52.322;10.232;2023-07-30T09:50:18;28.40;83.40
38090;DHT22;23904;52.322;10.232;2023-07-30T09:52:44;27.50;85.70
38090;DHT22;23904;52.322;10.232;2023-07-30T09:55:10;27.00;86.10
38090;DHT22;23904;52.322;10.232;2023-07-30T09:57:37;26.70;86.70
38090;DHT22;23904;52.322;10.232;2023-07-30T10:00:04;25.90;86.10
38090;DHT22;23904;52.322;10.232;2023-07-30T10:02:32;25.40;89.30
38090;DHT22;23904;52.322;10.232;2023-07-30T10:05:04;24.90;91.00
38090;DHT22;23904;52.322;10.232;2023-07-30T10:07:36;24.30;91.00
38090;DHT22;23904;52.322;10.232;2023-07-30T10:10:05;24.00;92.60
38090;DHT22;23904;52.322;10.232;2023-07-30T10:12:32;23.60;93.50
38090;DHT22;23904;52.322;10.232;2023-07-30T10:15:01;23.60;93.70
38090;DHT22;23904;52.322;10.232;2023-07-30T10:17:27;23.50;93.80
38090;DHT22;23904;52.322;10.232;2023-07-30T10:19:54;23.70;93.20
38090;DHT22;23904;52.322;10.232;2023-07-30T10:22:22;23.70;93.80
38090;DHT22;23904;52.322;10.232;2023-07-30T10:27:27;23.40;94.40
38090;DHT22;23904;52.322;10.232;2023-07-30T10:30:14;23.30;93.90
38090;DHT22;23904;52.322;10.232;2023-07-30T10:32:57;23.30;95.00
38090;DHT22;23904;52.322;10.232;2023-07-30T10:35:39;23.10;95.10
38090;DHT22;23904;52.322;10.232;2023-07-30T10:41:09;22.70;95.30
38090;DHT22;23904;52.322;10.232;2023-07-30T10:43:37;22.70;95.80
38090;DHT22;23904;52.322;10.232;2023-07-30T10:46:05;22.50;95.80
38090;DHT22;23904;52.322;10.232;2023-07-30T10:50:59;22.00;97.30
38090;DHT22;23904;52.322;10.232;2023-07-30T10:53:25;21.80;98.40
38090;DHT22;23904;52.322;10.232;2023-07-30T10:55:52;22.00;98.60
38090;DHT22;23904;52.322;10.232;2023-07-30T10:58:18;21.90;98.80
38090;DHT22;23904;52.322;10.232;2023-07-30T11:00:44;22.00;98.80
38090;DHT22;23904;52.322;10.232;2023-07-30T11:03:09;22.00;98.60
38090;DHT22;23904;52.322;10.232;2023-07-30T11:05:38;21.80;99.60
38090;DHT22;23904;52.322;10.232;2023-07-30T11:08:04;21.80;99.60
38090;DHT22;23904;52.322;10.232;2023-07-30T11:10:29;21.60;99.90
38090;DHT22;23904;52.322;10.232;2023-07-30T11:12:57;21.50;99.90
38090;DHT22;23904;52.322;10.232;2023-07-30T11:15:24;21.60;99.50
38090;DHT22;23904;52.322;10.232;2023-07-30T11:17:52;21.70;99.70
38090;DHT22;23904;52.322;10.232;2023-07-30T11:20:24;21.90;99.50
38090;DHT22;23904;52.322;10.232;2023-07-30T11:22:53;22.30;99.10
38090;DHT22;23904;52.322;10.232;2023-07-30T11:25:19;22.70;98.80
38090;DHT22;23904;52.322;10.232;2023-07-30T11:27:49;23.10;97.80
38090;DHT22;23904;52.322;10.232;2023-07-30T11:30:15;23.50;96.80
38090;DHT22;23904;52.322;10.232;2023-07-30T11:32:44;23.70;96.30
38090;DHT22;23904;52.322;10.232;2023-07-30T11:35:11;23.60;96.00
38090;DHT22;23904;52.322;10.232;2023-07-30T11:37:39;23.40;96.50
38090;DHT22;23904;52.322;10.232;2023-07-30T11:40:07;23.10;97.40
38090;DHT22;23904;52.322;10.232;2023-07-30T11:42:35;22.90;98.30
38090;DHT22;23904;52.322;10.232;2023-07-30T11:45:20;22.60;98.60
38090;DHT22;23904;52.322;10.232;2023-07-30T11:47:47;22.40;98.60
38090;DHT22;23904;52.322;10.232;2023-07-30T11:50:13;22.10;99.30
38090;DHT22;23904;52.322;10.232;2023-07-30T11:52:53;21.80;99.70
38090;DHT22;23904;52.322;10.232;2023-07-30T11:55:20;21.60;99.90
38090;DHT22;23904;52.322;10.232;2023-07-30T11:57:46;21.40;99.90
38090;DHT22;23904;52.322;10.232;2023-07-30T12:00:12;21.40;99.90
38090;DHT22;23904;52.322;10.232;2023-07-30T12:02:38;21.40;99.90
38090;DHT22;23904;52.322;10.232;2023-07-30T12:05:05;21.80;99.90
38090;DHT22;23904;52.322;10.232;2023-07-30T12:07:32;22.70;99.90
38090;DHT22;23904;52.322;10.232;2023-07-30T12:10:12;23.10;99.10
38090;DHT22;23904;52.322;10.232;2023-07-30T12:12:45;23.50;98.30
38090;DHT22;23904;52.322;10.232;2023-07-30T12:15:12;23.20;98.60
38090;DHT22;23904;52.322;10.232;2023-07-30T12:17:38;23.00;99.00
38090;DHT22;23904;52.322;10.232;2023-07-30T12:20:05;22.70;99.40
38090;DHT22;23904;52.322;10.232;2023-07-30T12:22:33;22.50;99.90
38090;DHT22;23904;52.322;10.232;2023-07-30T12:25:05;22.20;99.50
38090;DHT22;23904;52.322;10.232;2023-07-30T12:27:34;22.10;99.90
38090;DHT22;23904;52.322;10.232;2023-07-30T12:30:00;22.40;99.90
38090;DHT22;23904;52.322;10.232;2023-07-30T12:32:25;23.10;99.60
38090;DHT22;23904;52.322;10.232;2023-07-30T12:34:53;24.50;97.00
38090;DHT22;23904;52.322;10.232;2023-07-30T12:37:19;25.30;95.40
38090;DHT22;23904;52.322;10.232;2023-07-30T12:39:44;26.30;94.60
38090;DHT22;23904;52.322;10.232;2023-07-30T12:42:10;26.90;93.30
38090;DHT22;23904;52.322;10.232;2023-07-30T12:44:36;27.80;91.70
38090;DHT22;23904;52.322;10.232;2023-07-30T12:47:01;27.60;91.10
38090;DHT22;23904;52.322;10.232;2023-07-30T12:49:27;27.30;91.40
38090;DHT22;23904;52.322;10.232;2023-07-30T12:51:53;28.00;89.40
38090;DHT22;23904;52.322;10.232;2023-07-30T12:54:18;27.70;89.90
38090;DHT22;23904;52.322;10.232;2023-07-30T12:56:44;27.30;89.70
38090;DHT22;23904;52.322;10.232;2023-07-30T12:59:09;27.70;89.20
38090;DHT22;23904;52.322;10.232;2023-07-30T13:01:35;27.90;89.20
38090;DHT22;23904;52.322;10.232;2023-07-30T13:04:00;27.30;89.90
38090;DHT22;23904;52.322;10.232;2023-07-30T13:06:26;26.50;91.40
38090;DHT22;23904;52.322;10.232;2023-07-30T13:08:52;26.00;92.20
38090;DHT22;23904;52.322;10.232;2023-07-30T13:11:18;25.90;92.60
38090;DHT22;23904;52.322;10.232;2023-07-30T13:13:44;25.30;92.70
38090;DHT22;23904;52.322;10.232;2023-07-30T13:16:10;25.20;91.90
38090;DHT22;23904;52.322;10.232;2023-07-30T13:18:35;25.10;91.60
38090;DHT22;23904;52.322;10.232;2023-07-30T13:21:01;25.00;92.50
38090;DHT22;23904;52.322;10.232;2023-07-30T13:23:29;24.70;92.60
38090;DHT22;23904;52.322;10.232;2023-07-30T13:25:55;24.30;93.10
38090;DHT22;23904;52.322;10.232;2023-07-30T13:28:21;24.20;92.80
38090;DHT22;23904;52.322;10.232;2023-07-30T13:30:47;24.40;92.60
38090;DHT22;23904;52.322;10.232;2023-07-30T13:33:12;24.40;92.30
38090;DHT22;23904;52.322;10.232;2023-07-30T13:35:38;24.60;93.10
38090;DHT22;23904;52.322;10.232;2023-07-30T13:38:04;24.70;92.80
38090;DHT22;23904;52.322;10.232;2023-07-30T13:40:29;24.30;92.80
38090;DHT22;23904;52.322;10.232;2023-07-30T13:42:55;24.00;92.30
38090;DHT22;23904;52.322;10.232;2023-07-30T13:45:20;24.00;93.10
38090;DHT22;23904;52.322;10.232;2023-07-30T13:47:46;24.30;92.70
38090;DHT22;23904;52.322;10.232;2023-07-30T13:50:11;24.60;92.30
38090;DHT22;23904;52.322;10.232;2023-07-30T13:52:37;24.70;93.10
38090;DHT22;23904;52.322;10.232;2023-07-30T13:55:03;24.80;92.20
38090;DHT22;23904;52.322;10.232;2023-07-30T13:57:29;24.80;90.60
38090;DHT22;23904;52.322;10.232;2023-07-30T13:59:54;24.70;91.20
38090;DHT22;23904;52.322;10.232;2023-07-30T14:02:20;24.80;91.10
38090;DHT22;23904;52.322;10.232;2023-07-30T14:04:46;24.50;91.70
38090;DHT22;23904;52.322;10.232;2023-07-30T14:07:12;24.30;91.90
38090;DHT22;23904;52.322;10.232;2023-07-30T14:09:37;24.30;92.60
38090;DHT22;23904;52.322;10.232;2023-07-30T14:12:03;24.60;91.20
38090;DHT22;23904;52.322;10.232;2023-07-30T14:14:29;24.70;91.10
38090;DHT22;23904;52.322;10.232;2023-07-30T14:16:55;24.50;91.00
38090;DHT22;23904;52.322;10.232;2023-07-30T14:19:23;24.10;91.90
38090;DHT22;23904;52.322;10.232;2023-07-30T14:21:49;24.20;91.70
38090;DHT22;23904;52.322;10.232;2023-07-30T14:24:15;24.10;92.40
38090;DHT22;23904;52.322;10.232;2023-07-30T14:26:41;23.80;93.00
38090;DHT22;23904;52.322;10.232;2023-07-30T14:29:07;23.70;92.50
38090;DHT22;23904;52.322;10.232;2023-07-30T14:31:33;24.10;92.50
38090;DHT22;23904;52.322;10.232;2023-07-30T14:33:59;24.00;92.20
38090;DHT22;23904;52.322;10.232;2023-07-30T14:36:24;23.90;92.60
38090;DHT22;23904;52.322;10.232;2023-07-30T14:38:50;24.00;92.40
38090;DHT22;23904;52.322;10.232;2023-07-30T14:41:15;24.10;91.70
38090;DHT22;23904;52.322;10.232;2023-07-30T14:43:41;23.90;91.80
38090;DHT22;23904;52.322;10.232;2023-07-30T14:46:06;23.80;92.40
38090;DHT22;23904;52.322;10.232;2023-07-30T14:48:39;24.00;92.30
38090;DHT22;23904;52.322;10.232;2023-07-30T14:51:06;23.90;91.60
38090;DHT22;23904;52.322;10.232;2023-07-30T14:53:32;23.60;92.00
38090;DHT22;23904;52.322;10.232;2023-07-30T14:55:58;23.50;92.10
38090;DHT22;23904;52.322;10.232;2023-07-30T14:58:24;23.50;92.80
38090;DHT22;23904;52.322;10.232;2023-07-30T15:00:49;23.50;92.50
38090;DHT22;23904;52.322;10.232;2023-07-30T15:03:15;23.50;92.40
38090;DHT22;23904;52.322;10.232;2023-07-30T15:05:40;23.40;92.80
38090;DHT22;23904;52.322;10.232;2023-07-30T15:08:06;23.40;92.20
38090;DHT22;23904;52.322;10.232;2023-07-30T15:10:31;23.30;92.30
38090;DHT22;23904;52.322;10.232;2023-07-30T15:12:57;23.10;92.70
38090;DHT22;23904;52.322;10.232;2023-07-30T15:15:22;23.10;92.50
38090;DHT22;23904;52.322;10.232;2023-07-30T15:17:48;23.00;92.40
38090;DHT22;23904;52.322;10.232;2023-07-30T15:20:13;23.00;93.30
38090;DHT22;23904;52.322;10.232;2023-07-30T15:22:39;22.70;93.30